createdAt,value
2023-09-28T00:01:27.788Z,0.00
2023-09-28T00:06:46.432Z,0.00
2023-09-28T00:12:06.633Z,0.00
2023-09-28T00:17:26.969Z,0.00
2023-09-28T00:22:47.088Z,0.00
2023-09-28T00:28:05.762Z,0.00
2023-09-28T00:33:20.999Z,0.00
2023-09-28T00:38:39.698Z,0.00
2023-09-28T00:43:55.087Z,0.00
2023-09-28T00:49:13.642Z,0.00
2023-09-28T00:54:33.826Z,0.00
2023-09-28T00:59:54.034Z,0.00
2023-09-28T01:05:14.313Z,0.00
2023-09-28T01:10:32.956Z,0.00
2023-09-28T01:21:04.015Z,0.00
2023-09-28T01:26:22.750Z,0.00
2023-09-28T01:31:42.925Z,0.00
2023-09-28T01:37:03.146Z,0.00
2023-09-28T01:42:23.331Z,0.00
2023-09-28T01:47:38.582Z,0.00
2023-09-28T01:52:57.311Z,0.00
2023-09-28T01:58:15.969Z,0.00
2023-09-28T02:03:31.231Z,0.00
2023-09-28T02:08:51.417Z,0.00
2023-09-28T02:14:11.656Z,0.00
2023-09-28T02:19:31.828Z,0.00
2023-09-28T02:24:47.067Z,0.00
2023-09-28T02:30:05.755Z,0.00
2023-09-28T02:35:20.985Z,0.00
2023-09-28T02:40:39.714Z,0.00
2023-09-28T02:46:03.411Z,0.00
2023-09-28T02:51:23.605Z,0.00
2023-09-28T02:56:43.846Z,0.00
2023-09-28T03:02:02.649Z,0.00
2023-09-28T03:07:17.734Z,0.00
2023-09-28T03:12:32.984Z,0.00
2023-09-28T03:17:51.702Z,0.00
2023-09-28T03:23:11.900Z,0.00
2023-09-28T03:28:32.133Z,0.00
2023-09-28T03:33:52.448Z,0.00
2023-09-28T03:39:11.010Z,0.00
2023-09-28T03:44:26.264Z,0.00
2023-09-28T03:49:44.939Z,0.00
2023-09-28T03:55:00.199Z,0.00
2023-09-28T04:00:20.405Z,0.00
2023-09-28T04:05:40.576Z,0.00
2023-09-28T04:11:00.841Z,0.00
2023-09-28T04:16:19.600Z,0.00
2023-09-28T04:21:38.219Z,0.00
2023-09-28T04:26:53.430Z,0.00
2023-09-28T04:32:08.749Z,0.00
2023-09-28T04:37:27.383Z,0.00
2023-09-28T04:42:47.566Z,0.00
2023-09-28T04:48:07.834Z,0.00
2023-09-28T04:53:26.510Z,0.00
2023-09-28T04:58:45.241Z,0.00
2023-09-28T05:04:03.975Z,0.00
2023-09-28T05:09:22.643Z,2.50
2023-09-28T05:14:37.852Z,6.67
2023-09-28T05:19:58.109Z,16.67
2023-09-28T05:25:18.268Z,22.50
2023-09-28T16:54:39.767Z,24.17
2023-09-28T17:00:00.096Z,351.67
2023-09-28T17:05:20.899Z,279.17
2023-09-28T17:10:37.655Z,178.33
2023-09-28T17:15:56.303Z,95.00
2023-09-28T17:21:11.602Z,60.83
2023-09-28T17:26:26.838Z,35.00
2023-09-28T17:31:45.546Z,18.33
2023-09-28T17:37:05.949Z,7.50
2023-09-28T17:42:26.134Z,2.50
2023-09-28T17:47:46.975Z,0.00
2023-09-28T17:53:01.565Z,0.00
2023-09-28T17:58:16.840Z,0.00
2023-09-28T18:03:36.575Z,0.00
2023-09-28T18:08:51.776Z,0.00
2023-09-28T18:14:17.232Z,0.00
2023-09-28T18:19:38.546Z,0.00
2023-09-28T18:24:58.884Z,0.00
2023-09-28T18:30:14.334Z,0.00
2023-09-28T18:35:32.988Z,0.00
2023-09-28T18:40:51.684Z,0.00
2023-09-28T18:46:06.935Z,0.00
2023-09-28T18:51:27.115Z,0.00
2023-09-28T18:56:47.365Z,0.00
2023-09-28T19:02:07.581Z,0.00
2023-09-28T19:07:26.246Z,0.00
2023-09-28T19:12:41.473Z,0.00
2023-09-28T19:17:56.744Z,0.00
2023-09-28T19:23:15.404Z,0.00
2023-09-28T19:28:35.611Z,0.00
2023-09-28T19:33:56.166Z,0.00
2023-09-28T19:39:16.185Z,0.00
2023-09-28T19:44:36.419Z,0.00
2023-09-28T19:49:51.630Z,0.00
2023-09-28T19:55:06.861Z,0.00
2023-09-28T20:00:22.041Z,0.00
2023-09-28T20:05:37.338Z,0.00
2023-09-28T20:10:57.493Z,0.00
2023-09-28T20:16:17.775Z,0.00
2023-09-28T20:21:38.001Z,0.00
2023-09-28T20:26:53.209Z,0.00
2023-09-28T20:32:11.871Z,0.00
2023-09-28T20:37:27.102Z,0.00
2023-09-28T20:42:45.793Z,0.00
2023-09-28T20:48:06.118Z,0.00
2023-09-28T20:53:26.295Z,0.00
2023-09-28T20:58:46.435Z,0.00
2023-09-28T21:04:01.694Z,0.00
2023-09-28T21:09:20.415Z,0.00
2023-09-28T21:14:39.119Z,0.00
2023-09-28T21:19:54.289Z,0.00
2023-09-28T21:25:14.544Z,0.00
2023-09-28T21:30:34.719Z,0.00
2023-09-28T21:35:54.986Z,0.00
2023-09-28T21:41:13.666Z,0.00
2023-09-28T21:46:28.860Z,0.00
2023-09-28T21:51:44.070Z,0.00
2023-09-28T21:56:59.320Z,0.00
2023-09-28T22:02:14.489Z,0.00
2023-09-28T22:07:34.705Z,0.00
2023-09-28T22:12:54.941Z,0.00
2023-09-28T22:18:15.196Z,0.00
2023-09-28T22:23:33.896Z,0.00
2023-09-28T22:28:52.725Z,0.00
2023-09-28T22:34:11.279Z,0.00
2023-09-28T22:39:29.989Z,0.00
2023-09-28T22:44:50.315Z,0.00
2023-09-28T22:50:10.413Z,0.00
2023-09-28T22:55:30.624Z,0.00
2023-09-28T23:00:45.869Z,0.00
2023-09-28T23:06:01.060Z,0.00
2023-09-28T23:11:19.801Z,0.00
2023-09-28T23:16:38.506Z,0.00
2023-09-28T23:21:58.693Z,0.00
2023-09-28T23:27:18.943Z,0.00
2023-09-28T23:32:39.175Z,0.00
2023-09-28T23:37:58.423Z,0.00
2023-09-28T23:43:17.254Z,0.00
2023-09-28T23:48:36.208Z,0.00
2023-09-28T23:53:54.772Z,0.00
2023-09-28T23:59:13.436Z,0.00
